KTUL/TUL METAR and TAF weather

Enter ICAO airport designator
Station Type Date Time Source
KTUL METAR 2019/06/16 19:53 UTC NOAA

KTUL 161953Z 06005KT 10SM SCT047 26/20 A2984 RMK AO2 SLP097 T02560200


Station Type Date Time Source
KTUL Decoded METAR 2019/06/16 19:53 UTC NOAA

TULSA INTERNATIONAL AIRPORT, OK, United States (KTUL) 36-12N 95-53W 207M
Jun 16, 2019 - 03:53 PM EDT / 2019.06.16 1953 UTC
Wind: from the ENE (060 degrees) at 6 MPH (5 KT):0
Visibility: 10 mile(s):0
Sky conditions: partly cloudy
Temperature: 78.1 F (25.6 C)
Dew Point: 68.0 F (20.0 C)
Relative Humidity: 71%
Pressure (altimeter): 29.84 in. Hg (1010 hPa)
ob: KTUL 161953Z 06005KT 10SM SCT047 26/20 A2984 RMK AO2 SLP097 T02560200
cycle: 20

Station Type Date Time Source
KTUL TAF 2019/06/16 18:27 UTC NOAA

TAF KTUL 161724Z 1618/1718 21006KT P6SM BKN050
FM162200 VRB05KT P6SM SCT030 BKN050
TEMPO 1622/1702 4SM -TSRA BKN025CB
FM170200 VRB04KT P6SM BKN050 PROB30 1703/1709 5SM -TSRA BKN025CB
FM171200 VRB04KT 5SM BR OVC025
FM171600 VRB04KT P6SM SCT025 BKN040

Example: see airport list